CheckWX is a tool to help pilots better visualize weather data.  It is not intended as a substitute for an official pre-flight weather briefing.

17:26:05 UTC

UIII TAF
Irkutsk Airport
Irkutsk, Russian Federation
TAF UIII 111400Z 1115/1215 14003MPS 3100 BR NSC FM112000 32007G12MPS 2900 -SHSN DRSN BKN011CB TEMPO 1120/1212 0900 +SHSN VV003

Dec-11@
15:00 UTC

Dec-11 @ 15:00 UTC

Dec-11@
20:00 UTC

Dec-11 @ 20:00 UTC

TAF UIII 111400Z 1115/1215 14003MPS 3100 BR NSC
Wind
  • 140° at 6 KTS
Conditions
Mist
Cloud Levels
  • No significant clouds

Dec-11@
20:00 UTC

Dec-11 @ 20:00 UTC

Dec-12@
12:00 UTC

Dec-12 @ 12:00 UTC

TEMPO 1120/1212 0900 +SHSN VV003

Temporary

Temporary Changes expected for less than half the time period

Conditions
Heavy Snow
Cloud Levels
  • Vertical visibility at 300' AGL

Dec-11@
20:00 UTC

Dec-11 @ 20:00 UTC

Dec-12@
15:00 UTC

Dec-12 @ 15:00 UTC

FM112000 32007G12MPS 2900 -SHSN DRSN BKN011CB

From

From Standard forecast or significant change

Wind
  • 320° at 14 KTS
  • {Gusting to 23 KTS
Conditions
Light Snow, Low drifting Snow
Cloud Levels
  • Broken at 1,100' AGL